Time;durP1;ratioP1;P1;durP2;ratioP2;P2;SDS_P1;SDS_P2;PMS_P1;PMS_P2;Temp;Humidity;BMP_temperature;BMP_pressure;BME280_temperature;BME280_humidity;BME280_pressure;Samples;Min_cycle;Max_cycle;Signal;HPM_P1;HPM_P2
2023/06/07 00:01:50;;;;;;;11.90;5.07;;;10.60;99.90;;;;;;5052060;28;20090;-66
2023/06/07 00:04:15;;;;;;;10.98;5.30;;;10.50;99.90;;;;;;5067862;28;20422;-65
2023/06/07 00:06:41;;;;;;;11.63;5.07;;;10.50;99.90;;;;;;5069399;28;20077;-66
2023/06/07 00:09:08;;;;;;;11.70;5.80;;;10.50;99.90;;;;;;5067557;28;20032;-68
2023/06/07 00:11:34;;;;;;;7.15;4.55;;;10.40;99.90;;;;;;5067700;28;20037;-65
2023/06/07 00:14:00;;;;;;;12.23;5.05;;;10.40;99.90;;;;;;5068116;28;20036;-65
2023/06/07 00:16:26;;;;;;;10.48;5.03;;;10.40;99.90;;;;;;5067371;28;20051;-66
2023/06/07 00:18:52;;;;;;;11.55;4.93;;;10.30;99.90;;;;;;5067491;28;20443;-66
2023/06/07 00:21:19;;;;;;;9.73;4.80;;;10.30;99.90;;;;;;5067211;28;20541;-65
2023/06/07 00:23:46;;;;;;;9.02;5.32;;;10.30;99.90;;;;;;5071634;28;20517;-65
2023/06/07 00:26:12;;;;;;;8.20;4.60;;;10.30;99.90;;;;;;5095036;28;20109;-67
2023/06/07 00:28:37;;;;;;;7.93;4.97;;;10.20;99.90;;;;;;5067982;28;22798;-66
2023/06/07 00:31:04;;;;;;;8.88;4.80;;;10.20;99.90;;;;;;5070256;28;20128;-65
2023/06/07 00:33:30;;;;;;;12.32;5.10;;;10.20;99.90;;;;;;5068299;28;20491;-66
2023/06/07 00:35:55;;;;;;;10.85;4.65;;;10.10;99.90;;;;;;5063827;28;20066;-67
2023/06/07 00:38:23;;;;;;;10.20;4.70;;;10.10;99.90;;;;;;5067887;28;20045;-66
2023/06/07 00:40:49;;;;;;;10.43;4.55;;;10.10;99.90;;;;;;5066705;28;20048;-65
2023/06/07 00:43:15;;;;;;;12.63;5.18;;;10.10;99.90;;;;;;5069438;28;20126;-66
2023/06/07 00:45:41;;;;;;;7.65;4.82;;;10.10;99.90;;;;;;5067649;28;20044;-66
2023/06/07 00:48:07;;;;;;;8.85;4.93;;;10.10;99.90;;;;;;5071315;28;20380;-66
2023/06/07 00:50:34;;;;;;;10.10;4.60;;;10.10;99.90;;;;;;5070598;28;20040;-65
2023/06/07 00:53:01;;;;;;;12.52;5.40;;;10.00;99.90;;;;;;5073047;28;20054;-64
2023/06/07 00:55:26;;;;;;;10.45;4.88;;;10.00;99.90;;;;;;5071790;28;20646;-66
2023/06/07 00:57:53;;;;;;;9.07;4.47;;;10.00;99.90;;;;;;5070591;28;20048;-66
2023/06/07 01:00:20;;;;;;;11.68;5.20;;;9.90;99.90;;;;;;5068225;28;20036;-65
2023/06/07 01:02:47;;;;;;;9.07;4.75;;;9.90;99.90;;;;;;5070626;28;20384;-66
2023/06/07 01:05:14;;;;;;;8.63;4.97;;;9.90;99.90;;;;;;5070880;28;20044;-65
2023/06/07 01:07:48;;;;;;;12.02;5.40;;;9.90;99.90;;;;;;5070330;28;20387;-66
2023/06/07 01:10:14;;;;;;;9.50;4.95;;;9.90;99.90;;;;;;5071170;28;20045;-66
2023/06/07 01:12:43;;;;;;;10.05;4.97;;;9.80;99.90;;;;;;5068715;28;20044;-66
2023/06/07 01:15:11;;;;;;;9.95;4.45;;;9.80;99.90;;;;;;5070649;28;20028;-64
2023/06/07 01:17:40;;;;;;;8.07;4.65;;;9.80;99.90;;;;;;5070025;28;20229;-65
2023/06/07 01:20:15;;;;;;;9.13;4.85;;;9.80;99.90;;;;;;5087051;28;20053;-65
2023/06/07 01:22:44;;;;;;;10.88;4.90;;;9.80;99.90;;;;;;5051353;28;20059;-66
2023/06/07 01:25:11;;;;;;;9.25;4.93;;;9.70;99.90;;;;;;5071496;28;20589;-66
2023/06/07 01:27:40;;;;;;;8.88;4.97;;;9.70;99.90;;;;;;5052406;28;20124;-65
2023/06/07 01:30:07;;;;;;;7.53;4.90;;;9.70;99.90;;;;;;5069929;28;20040;-64
2023/06/07 01:32:33;;;;;;;11.20;4.72;;;9.70;99.90;;;;;;5071549;28;20040;-65
2023/06/07 01:34:59;;;;;;;8.57;4.75;;;9.60;99.90;;;;;;5070960;28;20079;-65
2023/06/07 01:37:26;;;;;;;10.02;4.85;;;9.60;99.90;;;;;;5070289;28;20150;-67
2023/06/07 01:39:53;;;;;;;9.40;4.65;;;9.60;99.90;;;;;;5071173;28;20044;-66
2023/06/07 01:42:21;;;;;;;8.57;5.13;;;9.60;99.90;;;;;;5071082;28;20055;-67
2023/06/07 01:44:47;;;;;;;8.48;5.00;;;9.60;99.90;;;;;;5102381;28;20044;-67
2023/06/07 01:47:14;;;;;;;10.05;4.65;;;9.60;99.90;;;;;;5071242;28;20048;-64
2023/06/07 01:49:41;;;;;;;10.80;4.63;;;9.60;99.90;;;;;;5071239;28;20028;-65
2023/06/07 01:52:07;;;;;;;10.07;4.95;;;9.60;99.90;;;;;;5070052;28;20067;-65
2023/06/07 01:54:33;;;;;;;10.57;5.00;;;9.60;99.90;;;;;;5069563;28;20036;-66
2023/06/07 01:57:08;;;;;;;6.60;4.95;;;9.60;99.90;;;;;;5054532;28;20534;-64
2023/06/07 02:00:01;;;;;;;8.57;4.78;;;9.60;99.90;;;;;;5070436;28;20570;-64
2023/06/07 02:02:46;;;;;;;8.70;4.55;;;9.60;99.90;;;;;;5054848;28;20127;-63
2023/06/07 02:05:40;;;;;;;9.10;4.68;;;9.60;99.90;;;;;;5070104;28;20036;-66
2023/06/07 02:08:17;;;;;;;11.10;5.47;;;9.60;99.90;;;;;;5067929;28;20054;-65
2023/06/07 02:10:44;;;;;;;11.80;4.97;;;9.70;99.90;;;;;;5070338;28;20049;-66
2023/06/07 02:13:11;;;;;;;7.85;4.55;;;9.70;99.90;;;;;;5070737;28;20051;-66
2023/06/07 02:15:36;;;;;;;9.38;5.25;;;9.70;99.90;;;;;;5071081;28;20383;-65
2023/06/07 02:18:02;;;;;;;10.80;5.40;;;9.70;99.90;;;;;;5070712;28;20044;-66
2023/06/07 02:20:29;;;;;;;9.45;5.30;;;9.70;99.90;;;;;;5069814;28;20044;-64
2023/06/07 02:22:56;;;;;;;11.68;5.55;;;9.70;99.90;;;;;;5070838;28;20083;-66
2023/06/07 02:25:25;;;;;;;10.77;5.85;;;9.70;99.90;;;;;;5069489;28;20052;-64
2023/06/07 02:27:52;;;;;;;10.02;5.45;;;9.70;99.90;;;;;;5069372;28;20067;-65
2023/06/07 02:30:18;;;;;;;10.27;5.30;;;9.70;99.90;;;;;;5068645;28;20112;-68
2023/06/07 02:32:49;;;;;;;9.75;5.22;;;9.80;99.90;;;;;;5069229;28;20040;-66
2023/06/07 02:35:17;;;;;;;10.13;5.30;;;9.80;99.90;;;;;;5051902;28;20055;-66
2023/06/07 02:37:43;;;;;;;10.88;5.57;;;9.80;99.90;;;;;;5053003;28;20043;-66
2023/06/07 02:40:10;;;;;;;9.52;5.10;;;9.80;99.90;;;;;;5070806;28;20040;-65
2023/06/07 02:42:36;;;;;;;13.45;6.43;;;9.80;99.90;;;;;;5053051;28;20053;-64
2023/06/07 02:45:03;;;;;;;12.32;5.53;;;9.80;99.90;;;;;;5067711;28;20043;-65
2023/06/07 02:47:30;;;;;;;11.57;5.50;;;9.80;99.90;;;;;;5069789;28;20048;-66
2023/06/07 02:49:56;;;;;;;11.30;5.80;;;9.80;99.90;;;;;;5066864;28;20041;-65
2023/06/07 02:52:22;;;;;;;10.82;5.78;;;9.80;99.90;;;;;;5068603;28;20041;-66
2023/06/07 02:54:48;;;;;;;13.40;6.40;;;9.80;99.90;;;;;;5068811;28;20376;-66
2023/06/07 02:57:14;;;;;;;16.88;5.85;;;9.80;99.90;;;;;;5066855;28;20059;-66
2023/06/07 02:59:40;;;;;;;11.30;6.07;;;9.80;99.90;;;;;;5068943;28;20041;-65
2023/06/07 03:02:06;;;;;;;10.45;6.20;;;9.80;99.90;;;;;;5068855;28;20032;-65
2023/06/07 03:04:32;;;;;;;10.82;6.00;;;9.80;99.90;;;;;;5052011;28;20048;-67
2023/06/07 03:06:58;;;;;;;11.80;6.28;;;9.80;99.90;;;;;;5070066;28;20047;-65
2023/06/07 03:09:24;;;;;;;12.38;6.13;;;9.80;99.90;;;;;;5067890;28;20391;-66
2023/06/07 03:11:50;;;;;;;12.50;6.20;;;9.90;99.90;;;;;;5070012;28;20035;-66
2023/06/07 03:14:19;;;;;;;13.38;7.30;;;9.90;99.90;;;;;;5069251;28;20041;-66
2023/06/07 03:16:48;;;;;;;15.25;7.28;;;9.90;99.90;;;;;;5050878;28;20107;-65
2023/06/07 03:19:14;;;;;;;15.98;7.05;;;9.90;99.90;;;;;;5069941;28;20425;-65
2023/06/07 03:21:40;;;;;;;12.77;6.97;;;9.90;99.90;;;;;;5067689;28;20052;-66
2023/06/07 03:24:06;;;;;;;14.88;6.80;;;9.90;99.90;;;;;;5070105;28;20055;-66
2023/06/07 03:26:32;;;;;;;14.77;7.07;;;9.90;99.90;;;;;;5068052;28;20044;-66
2023/06/07 03:28:57;;;;;;;16.30;6.55;;;9.90;99.90;;;;;;5068869;28;20048;-66
2023/06/07 03:31:23;;;;;;;13.00;7.35;;;9.80;99.90;;;;;;5052227;28;20143;-66
2023/06/07 03:33:49;;;;;;;14.82;7.57;;;9.90;99.90;;;;;;5068924;28;20044;-66
2023/06/07 03:36:17;;;;;;;14.05;7.03;;;9.90;99.90;;;;;;5068672;28;20048;-64
2023/06/07 03:38:43;;;;;;;12.77;7.28;;;9.90;99.90;;;;;;5068880;28;20041;-65
2023/06/07 03:41:08;;;;;;;12.32;7.38;;;9.80;99.90;;;;;;5069295;28;20113;-66
2023/06/07 03:43:34;;;;;;;15.18;7.22;;;9.90;99.90;;;;;;5068728;28;20045;-67
2023/06/07 03:46:00;;;;;;;14.20;7.30;;;9.90;99.90;;;;;;5068754;28;20087;-66
2023/06/07 03:48:25;;;;;;;16.92;7.25;;;9.90;99.90;;;;;;5052011;28;20483;-65
2023/06/07 03:50:51;;;;;;;19.35;7.60;;;9.90;99.90;;;;;;5068543;28;20033;-68
2023/06/07 03:53:16;;;;;;;18.40;8.15;;;9.90;99.90;;;;;;5068709;28;20041;-66
2023/06/07 03:55:42;;;;;;;16.67;7.00;;;10.00;99.90;;;;;;5068821;28;20041;-65
2023/06/07 03:58:08;;;;;;;13.40;6.90;;;10.00;99.90;;;;;;5069131;28;20052;-66
2023/06/07 04:00:34;;;;;;;15.32;7.05;;;10.00;99.90;;;;;;5068465;28;20083;-65
2023/06/07 04:03:00;;;;;;;12.10;6.45;;;10.00;99.90;;;;;;5068700;28;20076;-65
2023/06/07 04:05:26;;;;;;;13.32;7.13;;;10.00;99.90;;;;;;5068488;28;20037;-65
2023/06/07 04:07:53;;;;;;;17.60;7.10;;;10.00;99.90;;;;;;5068358;28;20040;-67
2023/06/07 04:10:19;;;;;;;15.40;7.63;;;10.00;99.90;;;;;;5066868;28;20049;-66
2023/06/07 04:12:45;;;;;;;13.93;7.15;;;10.00;99.90;;;;;;5069044;28;20031;-65
2023/06/07 04:15:10;;;;;;;13.25;7.03;;;10.00;99.90;;;;;;5052064;28;20143;-64
2023/06/07 04:17:36;;;;;;;13.07;6.80;;;10.10;99.90;;;;;;5067498;28;20145;-65
2023/06/07 04:20:03;;;;;;;10.98;6.43;;;10.10;99.90;;;;;;5067652;28;20114;-65
2023/06/07 04:22:30;;;;;;;11.73;6.05;;;10.10;99.90;;;;;;5071705;28;20539;-65
2023/06/07 04:24:57;;;;;;;13.93;6.10;;;10.10;99.90;;;;;;5073166;28;20036;-64
2023/06/07 04:27:23;;;;;;;12.43;6.57;;;10.20;99.90;;;;;;5074219;28;20040;-65
2023/06/07 04:29:53;;;;;;;13.15;6.13;;;10.20;99.90;;;;;;5057886;28;20143;-64
2023/06/07 04:32:19;;;;;;;14.15;6.68;;;10.30;99.90;;;;;;5075619;28;20511;-66
2023/06/07 04:34:48;;;;;;;16.35;6.70;;;10.30;99.90;;;;;;5073203;28;20124;-65
2023/06/07 04:37:14;;;;;;;15.55;6.65;;;10.40;99.90;;;;;;5071806;28;20036;-67
2023/06/07 04:39:41;;;;;;;12.93;6.45;;;10.40;99.90;;;;;;5072968;28;20037;-66
2023/06/07 04:42:07;;;;;;;16.75;6.53;;;10.50;99.90;;;;;;5066880;28;20064;-64
2023/06/07 04:44:36;;;;;;;16.38;6.10;;;10.50;99.90;;;;;;5071489;28;20399;-65
2023/06/07 04:47:03;;;;;;;16.08;6.40;;;10.60;99.90;;;;;;5069894;28;20561;-66
2023/06/07 04:49:33;;;;;;;17.10;5.93;;;10.70;99.90;;;;;;5053257;28;20056;-65
2023/06/07 04:52:01;;;;;;;11.57;5.50;;;10.70;99.90;;;;;;5070276;28;20053;-65
2023/06/07 04:54:29;;;;;;;13.75;5.82;;;10.80;99.90;;;;;;5072423;28;20033;-65
2023/06/07 04:56:56;;;;;;;17.25;6.07;;;10.90;99.90;;;;;;5069921;28;20045;-67
2023/06/07 04:59:23;;;;;;;13.55;5.60;;;10.90;99.90;;;;;;5073580;28;20432;-65
2023/06/07 05:01:49;;;;;;;12.68;5.55;;;11.00;99.90;;;;;;5053565;28;20139;-64
2023/06/07 05:04:16;;;;;;;16.85;5.53;;;11.00;99.90;;;;;;5071980;28;20170;-64
2023/06/07 05:06:42;;;;;;;14.05;5.38;;;11.10;99.90;;;;;;5070540;28;20396;-67
2023/06/07 05:09:09;;;;;;;14.38;5.13;;;11.20;99.90;;;;;;5103583;28;20045;-65
2023/06/07 05:11:35;;;;;;;12.43;5.40;;;11.30;99.90;;;;;;5069971;28;20048;-65
2023/06/07 05:14:00;;;;;;;16.45;4.65;;;11.40;99.90;;;;;;5071685;28;20255;-68
2023/06/07 05:16:26;;;;;;;15.02;4.70;;;11.40;99.90;;;;;;5073754;28;20029;-66
2023/06/07 05:18:53;;;;;;;12.20;4.63;;;11.60;99.90;;;;;;5070628;28;20040;-65
2023/06/07 05:21:19;;;;;;;14.77;4.65;;;11.60;99.90;;;;;;5072161;28;20079;-67
2023/06/07 05:23:45;;;;;;;15.00;4.32;;;11.80;99.90;;;;;;5070975;28;20052;-66
2023/06/07 05:26:11;;;;;;;12.27;4.55;;;11.80;99.90;;;;;;5071742;28;20045;-64
2023/06/07 05:28:37;;;;;;;18.40;4.18;;;11.90;99.90;;;;;;5071786;28;20123;-69
2023/06/07 05:31:03;;;;;;;15.48;4.63;;;12.00;99.90;;;;;;5072503;28;20600;-66
2023/06/07 05:33:28;;;;;;;13.55;4.45;;;12.10;99.90;;;;;;5071290;28;20040;-65
2023/06/07 05:35:55;;;;;;;15.88;4.53;;;12.20;99.90;;;;;;5071315;28;20468;-68
2023/06/07 05:38:21;;;;;;;10.73;4.40;;;12.20;99.90;;;;;;5070101;28;20045;-65
2023/06/07 05:40:46;;;;;;;13.60;4.88;;;12.30;99.90;;;;;;5102652;28;20051;-67
2023/06/07 05:43:12;;;;;;;14.43;5.15;;;12.20;99.90;;;;;;5070823;28;20119;-65
2023/06/07 05:45:40;;;;;;;20.80;5.20;;;12.20;99.90;;;;;;5068181;28;20144;-66
2023/06/07 05:48:05;;;;;;;13.07;4.97;;;12.30;99.90;;;;;;5068258;28;20056;-65
2023/06/07 05:50:31;;;;;;;14.73;4.75;;;12.30;99.90;;;;;;5070285;28;20063;-66
2023/06/07 05:52:57;;;;;;;15.60;5.03;;;12.30;99.90;;;;;;5070245;28;20049;-67
2023/06/07 05:55:29;;;;;;;10.70;4.05;;;12.40;99.90;;;;;;5053318;28;20044;-65
2023/06/07 05:58:00;;;;;;;14.85;4.82;;;12.40;99.90;;;;;;5071898;28;20106;-64
2023/06/07 06:00:26;;;;;;;12.45;4.20;;;12.40;99.90;;;;;;5070381;28;20058;-65
2023/06/07 06:02:52;;;;;;;11.20;4.07;;;12.30;99.90;;;;;;5070327;28;20073;-65
2023/06/07 06:05:20;;;;;;;11.25;4.13;;;12.40;99.90;;;;;;5070164;28;20044;-66
2023/06/07 06:07:46;;;;;;;13.25;3.90;;;12.40;99.90;;;;;;5070680;28;20033;-65
2023/06/07 06:10:12;;;;;;;11.43;4.20;;;12.50;99.90;;;;;;5069867;28;20525;-65
2023/06/07 06:12:38;;;;;;;13.32;4.00;;;12.50;99.90;;;;;;5068158;28;20053;-67
2023/06/07 06:15:05;;;;;;;13.50;3.80;;;12.50;99.90;;;;;;5069652;28;20107;-66
2023/06/07 06:17:30;;;;;;;10.25;3.63;;;12.60;99.90;;;;;;5067692;28;20489;-65
2023/06/07 06:19:56;;;;;;;12.18;3.70;;;12.70;99.90;;;;;;5070092;28;20036;-64
2023/06/07 06:22:22;;;;;;;14.00;3.90;;;12.70;99.90;;;;;;5070829;28;20556;-64
2023/06/07 06:24:47;;;;;;;13.48;3.83;;;12.80;99.90;;;;;;5070293;28;20071;-65
2023/06/07 06:27:13;;;;;;;11.18;4.07;;;12.80;99.90;;;;;;5069619;28;20090;-66
2023/06/07 06:29:39;;;;;;;60.35;11.25;;;12.80;99.90;;;;;;5070000;28;20555;-65
2023/06/07 06:32:05;;;;;;;36.60;7.03;;;12.80;99.90;;;;;;5064366;28;20041;-63
2023/06/07 06:34:31;;;;;;;18.63;4.32;;;12.90;99.90;;;;;;5069149;28;20089;-64
2023/06/07 06:37:00;;;;;;;15.35;4.00;;;13.00;99.90;;;;;;5050897;28;20136;-66
2023/06/07 06:39:26;;;;;;;9.80;3.38;;;13.00;99.90;;;;;;5070956;28;20519;-66
2023/06/07 06:41:52;;;;;;;16.48;4.03;;;13.10;99.90;;;;;;5069421;28;20063;-64
2023/06/07 06:44:18;;;;;;;14.02;4.25;;;13.10;99.90;;;;;;5072319;28;20123;-64
2023/06/07 06:46:43;;;;;;;11.90;3.80;;;13.20;99.90;;;;;;5069373;28;20048;-65
2023/06/07 06:49:09;;;;;;;14.80;4.03;;;13.30;99.90;;;;;;5067788;28;21562;-66
2023/06/07 06:51:35;;;;;;;11.90;3.58;;;13.70;99.90;;;;;;5068565;28;20055;-64
2023/06/07 06:54:00;;;;;;;13.85;3.95;;;13.80;99.90;;;;;;5068588;28;20032;-66
2023/06/07 06:56:26;;;;;;;7.97;3.05;;;14.00;99.90;;;;;;5069576;28;20511;-67
2023/06/07 06:58:52;;;;;;;11.38;3.47;;;14.30;99.90;;;;;;5067416;28;20402;-67
2023/06/07 07:01:18;;;;;;;17.60;4.40;;;14.50;99.90;;;;;;5068003;28;20040;-65
2023/06/07 07:03:44;;;;;;;11.05;3.53;;;14.70;99.90;;;;;;5068957;28;20110;-66
2023/06/07 07:06:09;;;;;;;9.98;3.53;;;14.80;99.90;;;;;;5067707;28;20045;-65
2023/06/07 07:08:36;;;;;;;13.95;3.85;;;14.90;99.90;;;;;;5069514;28;20056;-65
2023/06/07 07:11:02;;;;;;;18.15;3.78;;;15.10;99.90;;;;;;5068816;28;20056;-65
2023/06/07 07:13:27;;;;;;;12.50;3.70;;;15.10;99.90;;;;;;5069763;28;20562;-65
2023/06/07 07:15:53;;;;;;;11.88;3.08;;;15.10;99.90;;;;;;5067628;28;20044;-65
2023/06/07 07:18:18;;;;;;;11.85;3.00;;;15.10;99.90;;;;;;5068836;28;20040;-67
2023/06/07 07:20:45;;;;;;;8.13;2.95;;;15.00;99.90;;;;;;5067023;28;20045;-69
2023/06/07 07:23:12;;;;;;;9.40;3.33;;;15.10;99.90;;;;;;5068778;28;20044;-65
2023/06/07 07:25:38;;;;;;;9.73;3.33;;;15.40;99.90;;;;;;5070883;28;20502;-66
2023/06/07 07:28:04;;;;;;;11.10;3.17;;;15.60;99.90;;;;;;5065335;28;20556;-66
2023/06/07 07:30:30;;;;;;;10.52;2.72;;;15.90;99.90;;;;;;5063201;28;20044;-67
2023/06/07 07:32:56;;;;;;;11.65;3.45;;;16.20;99.90;;;;;;5069798;28;20165;-65
2023/06/07 07:35:23;;;;;;;12.25;3.75;;;16.50;99.90;;;;;;5064934;28;20044;-67
2023/06/07 07:37:49;;;;;;;12.05;3.05;;;16.70;99.90;;;;;;5051961;28;20066;-68
2023/06/07 07:40:15;;;;;;;9.52;2.80;;;17.00;99.90;;;;;;5068754;28;20051;-67
2023/06/07 07:42:41;;;;;;;8.95;2.97;;;17.20;99.90;;;;;;5059522;28;20455;-66
2023/06/07 07:45:07;;;;;;;10.43;2.92;;;17.20;99.90;;;;;;5062072;28;20135;-67
2023/06/07 07:47:33;;;;;;;12.25;3.05;;;17.30;99.90;;;;;;5068241;28;20032;-67
2023/06/07 07:50:00;;;;;;;8.73;2.75;;;17.50;99.90;;;;;;5061927;28;20552;-65
2023/06/07 07:52:26;;;;;;;7.28;2.80;;;17.40;99.90;;;;;;5066073;28;20040;-66
2023/06/07 07:54:51;;;;;;;13.63;3.53;;;17.50;99.90;;;;;;5069292;28;20112;-67
2023/06/07 07:57:17;;;;;;;10.65;3.00;;;17.50;99.90;;;;;;5073272;28;20475;-64
2023/06/07 07:59:43;;;;;;;12.10;3.03;;;17.60;99.90;;;;;;5074565;28;20467;-66
2023/06/07 08:02:09;;;;;;;10.52;3.15;;;17.70;99.90;;;;;;5102986;28;20051;-66
2023/06/07 08:04:35;;;;;;;10.40;3.25;;;17.80;99.90;;;;;;5099284;27;20445;-65
2023/06/07 08:07:01;;;;;;;10.25;2.70;;;17.80;99.90;;;;;;5074802;28;20131;-66
2023/06/07 08:09:27;;;;;;;9.48;2.90;;;18.10;99.90;;;;;;5055802;28;20048;-66
2023/06/07 08:11:52;;;;;;;8.98;2.58;;;18.00;99.90;;;;;;5062551;28;20135;-67
2023/06/07 08:14:19;;;;;;;14.90;3.35;;;18.20;99.90;;;;;;5072479;28;20047;-68
2023/06/07 08:16:45;;;;;;;11.65;2.97;;;18.20;99.90;;;;;;5073753;28;20078;-66
2023/06/07 08:19:11;;;;;;;12.80;3.00;;;18.40;99.90;;;;;;5067278;28;20044;-67
2023/06/07 08:21:37;;;;;;;10.02;2.92;;;18.50;99.90;;;;;;5074735;28;20051;-66
2023/06/07 08:24:03;;;;;;;9.80;3.38;;;18.60;99.90;;;;;;5064084;28;20423;-65
2023/06/07 08:26:30;;;;;;;9.27;3.13;;;18.60;99.90;;;;;;5065196;28;20407;-64
2023/06/07 08:28:55;;;;;;;10.52;3.05;;;18.60;99.90;;;;;;5068894;28;20040;-67
2023/06/07 08:31:22;;;;;;;10.32;2.95;;;18.80;99.90;;;;;;5070369;28;20055;-66
2023/06/07 08:33:49;;;;;;;11.45;3.38;;;19.00;99.90;;;;;;5074154;28;20044;-66
2023/06/07 08:36:15;;;;;;;9.38;2.83;;;19.00;99.90;;;;;;5066369;28;20048;-67
2023/06/07 08:38:41;;;;;;;11.38;3.65;;;19.10;99.90;;;;;;5069567;28;20517;-65
2023/06/07 08:41:07;;;;;;;6.72;2.63;;;19.30;99.90;;;;;;5069099;28;20519;-65
2023/06/07 08:43:33;;;;;;;6.47;2.72;;;19.20;99.90;;;;;;5071902;28;20055;-65
2023/06/07 08:46:05;;;;;;;13.10;3.20;;;19.30;99.90;;;;;;5068954;28;20402;-66
2023/06/07 08:48:33;;;;;;;10.95;2.80;;;19.40;99.90;;;;;;5059261;28;20464;-66
2023/06/07 08:51:01;;;;;;;9.15;3.00;;;19.40;99.90;;;;;;5061754;28;20049;-67
2023/06/07 08:53:30;;;;;;;13.13;3.08;;;19.40;99.90;;;;;;5061799;28;20093;-66
2023/06/07 08:55:58;;;;;;;9.88;3.13;;;19.60;99.90;;;;;;5061600;28;20407;-67
2023/06/07 08:58:26;;;;;;;8.77;2.92;;;19.80;99.90;;;;;;5062410;28;20202;-66
2023/06/07 09:00:56;;;;;;;9.90;3.28;;;19.90;99.90;;;;;;5067250;28;20084;-65
2023/06/07 09:03:22;;;;;;;11.70;3.22;;;19.90;99.90;;;;;;5067761;28;20119;-68
2023/06/07 09:05:47;;;;;;;11.90;3.75;;;20.00;99.90;;;;;;5075124;28;20178;-67
2023/06/07 09:08:13;;;;;;;6.88;3.00;;;20.20;99.90;;;;;;5070903;28;20467;-66
2023/06/07 09:10:40;;;;;;;8.38;3.30;;;20.30;99.90;;;;;;5070607;28;20045;-68
2023/06/07 09:13:06;;;;;;;11.10;3.25;;;20.30;99.70;;;;;;5068050;28;20499;-69
2023/06/07 09:15:34;;;;;;;8.93;3.35;;;20.40;99.60;;;;;;5065000;28;20028;-65
2023/06/07 09:18:01;;;;;;;9.68;3.03;;;20.60;99.40;;;;;;5066319;28;20129;-67
2023/06/07 09:20:30;;;;;;;11.65;3.22;;;20.70;99.00;;;;;;5064484;28;20448;-68
2023/06/07 09:23:05;;;;;;;8.80;2.80;;;20.90;99.00;;;;;;5069414;28;20581;-66
2023/06/07 09:25:31;;;;;;;12.35;3.47;;;21.00;98.70;;;;;;5068467;28;20080;-68
2023/06/07 09:27:57;;;;;;;10.65;3.20;;;21.20;99.30;;;;;;5064364;28;20033;-65
2023/06/07 09:30:24;;;;;;;10.77;3.10;;;21.40;98.80;;;;;;5072312;28;20040;-65
2023/06/07 09:32:50;;;;;;;9.93;3.33;;;21.60;98.30;;;;;;5070494;28;20040;-68
2023/06/07 09:35:18;;;;;;;11.05;3.30;;;21.70;98.00;;;;;;5071477;28;20048;-66
2023/06/07 09:37:46;;;;;;;9.07;2.90;;;21.80;97.80;;;;;;5052465;28;20079;-67
2023/06/07 09:40:15;;;;;;;7.82;2.97;;;22.00;98.50;;;;;;5071015;28;20495;-66
2023/06/07 09:42:42;;;;;;;9.05;3.15;;;22.20;97.80;;;;;;5066793;28;20408;-68
2023/06/07 09:45:15;;;;;;;10.43;3.08;;;22.30;97.70;;;;;;5070539;28;20095;-66
2023/06/07 09:47:42;;;;;;;7.05;3.08;;;22.40;97.00;;;;;;5063883;28;20442;-66
2023/06/07 09:50:12;;;;;;;7.80;3.20;;;22.40;97.10;;;;;;5068522;28;20139;-67
2023/06/07 09:52:39;;;;;;;12.15;2.95;;;22.50;96.90;;;;;;5070661;28;20474;-66
2023/06/07 09:55:23;;;;;;;12.07;3.08;;;22.60;96.40;;;;;;5070931;28;20040;-67
2023/06/07 09:57:49;;;;;;;10.38;3.30;;;22.70;96.30;;;;;;5067015;28;20053;-67
2023/06/07 10:00:16;;;;;;;10.18;3.30;;;22.70;95.40;;;;;;5070522;28;20075;-66
2023/06/07 10:02:43;;;;;;;7.55;3.20;;;22.80;95.30;;;;;;5063234;28;20041;-66
2023/06/07 10:05:12;;;;;;;9.43;3.22;;;22.80;95.10;;;;;;5062452;28;20521;-67
2023/06/07 10:07:44;;;;;;;8.55;3.15;;;22.80;94.70;;;;;;5070484;28;20547;-67
2023/06/07 10:10:19;;;;;;;7.90;3.28;;;23.00;94.80;;;;;;5069957;28;20044;-65
2023/06/07 10:12:46;;;;;;;8.85;3.28;;;23.10;94.20;;;;;;5066799;28;20063;-66
2023/06/07 10:15:22;;;;;;;8.82;3.33;;;23.00;93.40;;;;;;5058034;28;20040;-66
2023/06/07 10:17:49;;;;;;;6.13;3.38;;;23.10;93.40;;;;;;5070232;28;20044;-68
2023/06/07 10:20:25;;;;;;;8.82;3.53;;;23.20;93.20;;;;;;5064331;28;20078;-69
2023/06/07 10:22:54;;;;;;;8.20;3.42;;;23.40;93.90;;;;;;5067786;28;20078;-65
2023/06/07 10:25:23;;;;;;;11.35;3.70;;;23.20;92.90;;;;;;5068801;28;20044;-65
2023/06/07 10:27:48;;;;;;;7.25;3.33;;;23.30;92.70;;;;;;5068287;28;20036;-65
2023/06/07 10:30:16;;;;;;;8.55;2.92;;;23.50;92.70;;;;;;5068410;28;20478;-68
2023/06/07 10:32:44;;;;;;;8.40;3.53;;;23.70;92.80;;;;;;5070138;28;20464;-66
2023/06/07 10:35:11;;;;;;;6.03;2.78;;;23.90;92.90;;;;;;5066257;28;20035;-67
2023/06/07 10:37:37;;;;;;;10.73;3.70;;;24.10;92.50;;;;;;5064341;28;20438;-67
2023/06/07 10:40:09;;;;;;;7.35;3.10;;;24.00;91.60;;;;;;5068473;28;20095;-65
2023/06/07 10:42:46;;;;;;;12.57;3.25;;;24.20;91.30;;;;;;5081339;28;20442;-67
2023/06/07 10:45:15;;;;;;;7.95;3.70;;;24.20;90.60;;;;;;5090283;28;20125;-67
2023/06/07 10:47:45;;;;;;;8.98;3.20;;;24.30;90.60;;;;;;5061605;28;20044;-66
2023/06/07 10:50:26;;;;;;;10.05;3.30;;;24.20;90.30;;;;;;5080815;28;20053;-67
2023/06/07 10:52:59;;;;;;;9.48;3.53;;;24.00;89.50;;;;;;5069759;28;20044;-64
2023/06/07 10:55:31;;;;;;;6.68;2.70;;;24.00;90.30;;;;;;5070017;28;20044;-64
2023/06/07 10:58:00;;;;;;;8.82;3.28;;;24.00;90.50;;;;;;5064421;28;20135;-67
2023/06/07 11:00:31;;;;;;;9.88;3.70;;;23.90;89.60;;;;;;5070022;28;20059;-66
2023/06/07 11:03:09;;;;;;;6.45;3.13;;;23.90;90.40;;;;;;5070201;28;20044;-67
2023/06/07 11:05:53;;;;;;;6.50;2.70;;;23.90;90.40;;;;;;5070099;28;20060;-65
2023/06/07 11:08:26;;;;;;;5.60;2.95;;;23.90;90.80;;;;;;5068616;28;20040;-68
2023/06/07 11:10:58;;;;;;;9.40;2.97;;;24.00;91.10;;;;;;5069745;28;20736;-66
2023/06/07 11:13:25;;;;;;;6.55;3.13;;;24.00;90.80;;;;;;5066479;28;20509;-67
2023/06/07 11:15:50;;;;;;;8.70;3.55;;;24.00;90.70;;;;;;5065928;28;20048;-66
2023/06/07 11:18:16;;;;;;;8.63;3.80;;;23.90;89.70;;;;;;5068555;28;20043;-66
2023/06/07 11:20:45;;;;;;;7.45;3.17;;;23.80;89.90;;;;;;5052840;28;20139;-67
2023/06/07 11:23:29;;;;;;;10.20;3.58;;;23.80;90.10;;;;;;5068896;28;20060;-67
2023/06/07 11:26:06;;;;;;;10.45;3.47;;;23.90;90.40;;;;;;5069396;28;20059;-67
2023/06/07 11:28:33;;;;;;;10.45;3.33;;;23.80;89.20;;;;;;5069126;28;20040;-66
2023/06/07 11:31:00;;;;;;;6.90;2.90;;;23.70;89.90;;;;;;5068099;28;20056;-67
2023/06/07 11:33:27;;;;;;;8.38;3.25;;;23.60;90.10;;;;;;5070482;28;20120;-68
2023/06/07 11:35:54;;;;;;;6.97;2.90;;;23.70;89.00;;;;;;5068581;28;20044;-66
2023/06/07 11:38:20;;;;;;;10.18;2.90;;;23.80;90.20;;;;;;5068987;28;20079;-66
2023/06/07 11:40:46;;;;;;;8.20;3.33;;;23.80;90.30;;;;;;5069847;28;20063;-69
2023/06/07 11:43:15;;;;;;;8.32;2.97;;;23.70;89.90;;;;;;5070468;28;20128;-66
2023/06/07 11:45:44;;;;;;;6.78;3.20;;;23.80;89.20;;;;;;5069285;28;20403;-68
2023/06/07 11:48:10;;;;;;;6.68;2.88;;;23.90;89.50;;;;;;5068253;28;20052;-67
2023/06/07 11:50:37;;;;;;;8.10;3.38;;;23.80;89.00;;;;;;5065101;28;20435;-66
2023/06/07 11:53:05;;;;;;;8.25;2.90;;;23.60;87.10;;;;;;5070517;28;20463;-65
2023/06/07 11:55:32;;;;;;;9.63;3.47;;;23.50;87.50;;;;;;5069014;28;20051;-68
2023/06/07 11:58:02;;;;;;;7.70;3.33;;;23.50;87.40;;;;;;5068339;28;20075;-67
2023/06/07 12:00:31;;;;;;;6.85;3.15;;;23.50;87.90;;;;;;5068849;28;20036;-71
2023/06/07 12:03:01;;;;;;;8.25;2.85;;;23.50;89.20;;;;;;5068520;28;20052;-66
2023/06/07 12:05:30;;;;;;;9.80;3.28;;;23.50;89.70;;;;;;5063677;28;20043;-66
2023/06/07 12:08:07;;;;;;;7.22;2.88;;;23.70;89.30;;;;;;5068428;28;20403;-68
2023/06/07 12:10:36;;;;;;;6.07;2.90;;;23.70;90.40;;;;;;5067866;28;20075;-66
2023/06/07 12:13:12;;;;;;;8.40;2.92;;;23.70;90.30;;;;;;5066546;28;20071;-69
2023/06/07 12:15:58;;;;;;;7.68;2.80;;;23.80;90.80;;;;;;5064998;28;20041;-65
2023/06/07 12:18:27;;;;;;;8.07;3.13;;;23.80;89.50;;;;;;5066332;28;20048;-65
2023/06/07 12:21:10;;;;;;;7.68;3.13;;;23.80;90.20;;;;;;5064549;28;20040;-68
2023/06/07 12:23:38;;;;;;;7.20;3.35;;;23.90;90.30;;;;;;5066233;28;20123;-67
2023/06/07 12:26:08;;;;;;;10.20;3.25;;;23.80;89.20;;;;;;5066334;28;20051;-65
2023/06/07 12:28:34;;;;;;;6.72;3.08;;;23.90;89.20;;;;;;5068575;28;20063;-66
2023/06/07 12:31:00;;;;;;;8.68;3.30;;;23.80;89.50;;;;;;5064652;28;20044;-68
2023/06/07 12:33:29;;;;;;;9.00;3.65;;;23.70;89.00;;;;;;5066172;28;20421;-67
2023/06/07 12:35:59;;;;;;;7.57;2.63;;;23.60;88.40;;;;;;5063880;28;20506;-65
2023/06/07 12:38:25;;;;;;;9.50;3.30;;;23.60;90.00;;;;;;5068375;28;20391;-65
2023/06/07 12:40:51;;;;;;;7.53;3.00;;;23.60;88.90;;;;;;5067719;28;20043;-66
2023/06/07 12:43:17;;;;;;;7.65;2.85;;;23.60;89.60;;;;;;5066433;28;20487;-66
2023/06/07 12:45:43;;;;;;;8.73;3.28;;;23.60;88.60;;;;;;5072210;28;20083;-66